Terminal Aerodrome Forecast
Issued by NWS Chicago, IL

Home | Current Version | Previous Version | Text Only | Print | Product List | Glossary Off
Versions: 1 2 3 4 5 6 7 8 9 10 11 12 13 14 15 16 17 18 19 20 21 22 23 24 25 26 27 28 29 30 31 32

000
FTUS43 KLOT 181100
TAFRFD
TAF
KRFD 181125Z 1812/1912 16006KT 1SM -DZ BR OVC003
      TEMPO 1812/1814 1/2SM FG VV002
     FM181400 VRB03KT 6SM BR BKN008
     FM181600 19008KT P6SM BKN015
     FM181900 20008KT P6SM SCT040 BKN200
     FM182200 21007KT P6SM SHRA VCTS SCT045CB
     FM190300 21008KT 6SM -TSRA SCT035CB BKN050
     FM190500 20010KT P6SM -TSRA SCT035CB BKN040
     FM190900 22009KT 4SM SHRA BR BKN025 PROB30 1909/1912 TSRA
      BKN035CB=

USA.gov is the U.S. government's official web portal to all federal, state and local government web resources and services.